Auburn, New Jersey
Current Conditions -  °F | °C
As of 10:54 PM on Thursday 20 Nov 2014 (Local Time) from KPHL Reporting Station
Clear Clear  
Wind Chill: 23°   Ceiling: Unl
Heat Index: 33°   Visibility: 10mi
Dew Point:   Wind: 15mph
Humidity: 37%   Direction: 320°NW
Pressure: 30.08"   Gusts: 24mph
Location:  39.757°N, 75.3338°W
Report Text: KPHL 210354Z 32013G21KT 10SM CLR 01/M13 A3008 RMK AO2 SLP186 T00061128
Loading
Personal Weather Stations






























Interactive Weather Map New forecast layout! Learn more

10-Day Weather Forecast

Advertisements
Track Severe Weather on mobile